Time;durP1;ratioP1;P1;durP2;ratioP2;P2;SDS_P1;SDS_P2;PMS_P1;PMS_P2;Temp;Humidity;BMP_temperature;BMP_pressure;BME280_temperature;BME280_humidity;BME280_pressure;Samples;Min_cycle;Max_cycle;Signal;HPM_P1;HPM_P2
2021/09/20 00:00:33;;;;;;;2.00;0.70;;;13.80;99.90;;;;;;4994725;28;20473;-81
2021/09/20 00:03:00;;;;;;;0.60;0.60;;;13.80;99.90;;;;;;4994623;28;20484;-81
2021/09/20 00:05:28;;;;;;;1.80;0.93;;;13.80;99.90;;;;;;4994362;28;20970;-81
2021/09/20 00:07:55;;;;;;;0.50;0.47;;;13.80;99.90;;;;;;4994634;28;20463;-82
2021/09/20 00:10:21;;;;;;;2.17;0.80;;;13.80;99.90;;;;;;4994183;28;20480;-81
2021/09/20 00:12:48;;;;;;;3.60;0.80;;;13.80;99.90;;;;;;4994505;28;20452;-81
2021/09/20 00:15:15;;;;;;;0.70;0.50;;;13.80;99.90;;;;;;4994174;28;20994;-81
2021/09/20 00:17:42;;;;;;;0.77;0.63;;;13.80;99.90;;;;;;4994448;28;20456;-81
2021/09/20 00:20:11;;;;;;;0.53;0.50;;;13.80;99.90;;;;;;4994331;28;20472;-81
2021/09/20 00:22:39;;;;;;;0.40;0.40;;;13.80;99.90;;;;;;4994327;28;20480;-81
2021/09/20 00:25:07;;;;;;;1.03;0.50;;;13.80;99.90;;;;;;4994347;28;20452;-81
2021/09/20 00:27:34;;;;;;;0.50;0.47;;;13.80;99.90;;;;;;4993982;28;20817;-81
2021/09/20 00:30:02;;;;;;;0.80;0.40;;;13.80;99.90;;;;;;4994195;28;20469;-81
2021/09/20 00:32:29;;;;;;;1.50;0.97;;;13.80;99.90;;;;;;4993973;28;20803;-82
2021/09/20 00:34:55;;;;;;;0.50;0.50;;;13.80;99.90;;;;;;4994211;28;20463;-81
2021/09/20 00:37:22;;;;;;;1.40;1.30;;;13.80;99.90;;;;;;4993916;28;20447;-81
2021/09/20 00:39:50;;;;;;;0.43;0.43;;;13.80;99.90;;;;;;4993992;28;20452;-81
2021/09/20 00:42:17;;;;;;;0.53;0.53;;;13.80;99.90;;;;;;4994028;28;20452;-82
2021/09/20 00:44:44;;;;;;;1.37;0.70;;;13.70;99.90;;;;;;4993654;28;20472;-81
2021/09/20 00:47:11;;;;;;;1.53;0.47;;;13.80;99.90;;;;;;4993910;28;20452;-81
2021/09/20 00:49:38;;;;;;;0.50;0.50;;;13.80;99.90;;;;;;4993867;28;20472;-81
2021/09/20 00:52:05;;;;;;;0.93;0.60;;;13.70;99.90;;;;;;4994022;28;20459;-81
2021/09/20 00:54:32;;;;;;;0.40;0.40;;;13.70;99.90;;;;;;4993989;28;20444;-81
2021/09/20 00:57:02;;;;;;;0.50;0.40;;;13.70;99.90;;;;;;4993852;28;20460;-81
2021/09/20 00:59:29;;;;;;;0.87;0.70;;;13.70;99.90;;;;;;4994135;28;20468;-82
2021/09/20 01:01:56;;;;;;;2.93;0.60;;;13.70;99.90;;;;;;4993936;28;20440;-82
2021/09/20 01:04:22;;;;;;;0.80;0.80;;;13.70;99.90;;;;;;4993866;28;20857;-81
2021/09/20 01:06:49;;;;;;;1.23;0.80;;;13.70;99.90;;;;;;4993576;28;20829;-81
2021/09/20 01:09:16;;;;;;;0.50;0.50;;;13.70;99.90;;;;;;4993721;28;21010;-81
2021/09/20 01:11:44;;;;;;;0.43;0.40;;;13.70;99.90;;;;;;4993874;28;20452;-81
2021/09/20 01:14:12;;;;;;;0.70;0.67;;;13.80;99.90;;;;;;4993847;28;20463;-81
2021/09/20 01:16:39;;;;;;;1.13;0.77;;;13.80;99.90;;;;;;4993801;28;20568;-82
2021/09/20 01:19:06;;;;;;;0.60;0.40;;;13.70;99.90;;;;;;4993721;28;20468;-81
2021/09/20 01:21:32;;;;;;;1.37;1.27;;;13.70;99.90;;;;;;4993758;28;20453;-82
2021/09/20 01:24:01;;;;;;;1.37;1.13;;;13.70;99.90;;;;;;4993365;28;20999;-81
2021/09/20 01:26:28;;;;;;;0.87;0.60;;;13.70;99.90;;;;;;4993405;28;20968;-81
2021/09/20 01:28:55;;;;;;;1.00;0.70;;;13.70;99.90;;;;;;4993597;28;20477;-81
2021/09/20 01:31:22;;;;;;;0.70;0.40;;;13.70;99.90;;;;;;4993409;28;20436;-81
2021/09/20 01:33:48;;;;;;;0.73;0.73;;;13.70;99.90;;;;;;4993412;28;20445;-81
2021/09/20 01:36:15;;;;;;;1.20;0.47;;;13.70;99.90;;;;;;4993342;28;20436;-81
2021/09/20 01:38:42;;;;;;;1.30;0.60;;;13.70;99.90;;;;;;4993249;28;20444;-81
2021/09/20 01:41:10;;;;;;;0.80;0.57;;;13.70;99.90;;;;;;4993580;28;20453;-81
2021/09/20 01:43:37;;;;;;;0.50;0.40;;;13.70;99.90;;;;;;4993202;28;20488;-81
2021/09/20 01:46:03;;;;;;;0.73;0.73;;;13.60;99.90;;;;;;4993615;28;20432;-81
2021/09/20 01:48:30;;;;;;;0.40;0.40;;;13.70;99.90;;;;;;4993560;28;20460;-81
2021/09/20 01:50:57;;;;;;;0.70;0.70;;;13.60;99.90;;;;;;4993390;28;20472;-81
2021/09/20 01:53:23;;;;;;;3.13;0.60;;;13.60;99.90;;;;;;4993170;28;20444;-81
2021/09/20 01:55:50;;;;;;;1.70;0.87;;;13.60;99.90;;;;;;4993710;28;20449;-81
2021/09/20 01:58:19;;;;;;;0.50;0.50;;;13.60;99.90;;;;;;4994563;28;20866;-81
2021/09/20 02:00:47;;;;;;;1.43;0.93;;;13.60;99.90;;;;;;4995438;28;20464;-81
2021/09/20 02:03:14;;;;;;;1.33;1.07;;;13.50;99.90;;;;;;4997042;28;20484;-81
2021/09/20 02:05:41;;;;;;;0.70;0.60;;;13.50;99.90;;;;;;4996896;28;20456;-81
2021/09/20 02:08:08;;;;;;;0.80;0.60;;;13.50;99.90;;;;;;4996844;28;20456;-82
2021/09/20 02:10:35;;;;;;;0.40;0.40;;;13.50;99.90;;;;;;4996792;28;20471;-81
2021/09/20 02:13:02;;;;;;;1.00;0.40;;;13.50;99.90;;;;;;4997032;28;20444;-81
2021/09/20 02:15:30;;;;;;;0.40;0.37;;;13.50;99.90;;;;;;4996421;28;20943;-81
2021/09/20 02:17:57;;;;;;;1.40;0.70;;;13.50;99.90;;;;;;4996691;28;20890;-82
2021/09/20 02:20:24;;;;;;;1.13;0.60;;;13.50;99.90;;;;;;4996536;28;20472;-82
2021/09/20 02:22:51;;;;;;;1.60;0.70;;;13.50;99.90;;;;;;4996509;28;20487;-81
2021/09/20 02:25:18;;;;;;;1.90;1.80;;;13.50;99.90;;;;;;4996266;28;20449;-82
2021/09/20 02:27:45;;;;;;;0.57;0.53;;;13.50;99.90;;;;;;4996550;28;20452;-81
2021/09/20 02:30:12;;;;;;;0.80;0.40;;;13.60;99.90;;;;;;4996416;28;20468;-81
2021/09/20 02:32:40;;;;;;;4.13;0.60;;;13.60;99.90;;;;;;4996413;28;20460;-82
2021/09/20 02:35:09;;;;;;;0.50;0.50;;;13.60;99.90;;;;;;4996100;28;20451;-81
2021/09/20 02:37:36;;;;;;;1.10;0.60;;;13.60;99.90;;;;;;4996299;28;20454;-81
2021/09/20 02:40:04;;;;;;;1.13;0.50;;;13.60;99.90;;;;;;4996232;28;20476;-81
2021/09/20 02:42:31;;;;;;;1.20;0.67;;;13.50;99.90;;;;;;4996248;28;20471;-81
2021/09/20 02:44:58;;;;;;;2.50;0.80;;;13.50;99.90;;;;;;4995726;28;20491;-81
2021/09/20 02:47:25;;;;;;;0.60;0.60;;;13.50;99.90;;;;;;4996149;28;20453;-81
2021/09/20 02:49:53;;;;;;;0.83;0.83;;;13.60;99.90;;;;;;4996052;28;20473;-81
2021/09/20 02:52:19;;;;;;;2.27;1.00;;;13.60;99.90;;;;;;4995707;28;20959;-81
2021/09/20 02:54:46;;;;;;;0.50;0.50;;;13.60;99.90;;;;;;4995678;28;20939;-82
2021/09/20 02:57:13;;;;;;;1.23;0.60;;;13.60;99.90;;;;;;4995945;28;20452;-81
2021/09/20 02:59:39;;;;;;;0.90;0.80;;;13.60;99.90;;;;;;4995571;28;20468;-82
2021/09/20 03:02:06;;;;;;;0.50;0.50;;;13.60;99.90;;;;;;4995833;28;20448;-81
2021/09/20 03:04:33;;;;;;;2.63;0.50;;;13.50;99.90;;;;;;4996298;28;20497;-82
2021/09/20 03:07:01;;;;;;;1.53;0.60;;;13.50;99.90;;;;;;4995746;28;20455;-81
2021/09/20 03:09:28;;;;;;;1.00;0.63;;;13.60;99.90;;;;;;4995656;28;20464;-82
2021/09/20 03:11:55;;;;;;;1.47;0.70;;;13.50;99.90;;;;;;4995482;28;20463;-81
2021/09/20 03:14:21;;;;;;;0.60;0.50;;;13.60;99.90;;;;;;4995620;28;20453;-81
2021/09/20 03:16:48;;;;;;;1.93;0.57;;;13.60;99.90;;;;;;4995540;28;20452;-81
2021/09/20 03:19:15;;;;;;;3.63;1.10;;;13.60;99.90;;;;;;4995430;28;20476;-81
2021/09/20 03:21:42;;;;;;;1.83;1.47;;;13.60;99.90;;;;;;4995475;28;20485;-81
2021/09/20 03:24:12;;;;;;;2.20;0.70;;;13.60;99.90;;;;;;4995378;28;20503;-81
2021/09/20 03:26:39;;;;;;;0.40;0.40;;;13.60;99.90;;;;;;4995462;28;20436;-81
2021/09/20 03:29:07;;;;;;;1.33;0.60;;;13.60;99.90;;;;;;4995264;28;20468;-81
2021/09/20 03:31:34;;;;;;;0.97;0.67;;;13.60;99.90;;;;;;4995279;28;20452;-81
2021/09/20 03:34:01;;;;;;;0.73;0.73;;;13.60;99.90;;;;;;4995233;28;20452;-81
2021/09/20 03:36:28;;;;;;;1.20;0.53;;;13.60;99.90;;;;;;4995174;28;20459;-81
2021/09/20 03:38:54;;;;;;;1.40;0.60;;;13.60;99.90;;;;;;4995129;28;20472;-81
2021/09/20 03:41:22;;;;;;;1.13;0.83;;;13.60;99.90;;;;;;4995106;28;20460;-81
2021/09/20 03:43:49;;;;;;;2.63;1.13;;;13.60;99.90;;;;;;4994971;28;20496;-85
2021/09/20 03:46:16;;;;;;;1.47;0.70;;;13.50;99.90;;;;;;4995157;28;20437;-85
2021/09/20 03:48:43;;;;;;;1.10;0.70;;;13.50;99.90;;;;;;4995216;28;20460;-86
2021/09/20 03:51:10;;;;;;;1.03;0.50;;;13.50;99.90;;;;;;4995072;28;20452;-86
2021/09/20 03:53:37;;;;;;;0.80;0.80;;;13.50;99.90;;;;;;4995060;28;20475;-86
2021/09/20 03:56:04;;;;;;;2.00;0.70;;;13.50;99.90;;;;;;4995053;28;20452;-86
2021/09/20 03:58:32;;;;;;;0.93;0.53;;;13.40;99.90;;;;;;4995206;28;20812;-86
2021/09/20 04:00:59;;;;;;;2.33;0.93;;;13.50;99.90;;;;;;4995080;28;20825;-86
2021/09/20 04:03:26;;;;;;;1.07;1.07;;;13.50;99.90;;;;;;4995100;28;20459;-86
2021/09/20 04:05:52;;;;;;;1.50;0.60;;;13.50;99.90;;;;;;4994987;28;20444;-86
2021/09/20 04:08:26;;;;;;;0.40;0.40;;;13.40;99.90;;;;;;4994912;28;20452;-86
2021/09/20 04:10:53;;;;;;;2.27;0.90;;;13.40;99.90;;;;;;4994869;28;20472;-86
2021/09/20 04:13:20;;;;;;;2.10;0.60;;;13.40;99.90;;;;;;4994531;28;20455;-86
2021/09/20 04:15:48;;;;;;;2.00;0.50;;;13.40;99.90;;;;;;4994777;28;20483;-86
2021/09/20 04:18:15;;;;;;;0.67;0.67;;;13.40;99.90;;;;;;4994869;28;20824;-86
2021/09/20 04:20:41;;;;;;;1.10;0.50;;;13.40;99.90;;;;;;4994629;28;20477;-86
2021/09/20 04:23:08;;;;;;;1.03;0.60;;;13.30;99.90;;;;;;4994063;28;20528;-86
2021/09/20 04:25:35;;;;;;;0.60;0.60;;;13.30;99.90;;;;;;4994424;28;20852;-80
2021/09/20 04:28:01;;;;;;;1.87;0.90;;;13.30;99.90;;;;;;4994331;28;20459;-79
2021/09/20 04:30:28;;;;;;;1.80;1.00;;;13.40;99.90;;;;;;4994239;28;20468;-79
2021/09/20 04:32:56;;;;;;;0.47;0.40;;;13.40;99.90;;;;;;4993950;28;20952;-79
2021/09/20 04:35:23;;;;;;;0.60;0.60;;;13.40;99.90;;;;;;4994054;28;20459;-80
2021/09/20 04:37:50;;;;;;;0.43;0.43;;;13.40;99.90;;;;;;4994085;28;20456;-80
2021/09/20 04:40:17;;;;;;;1.53;0.97;;;13.40;99.90;;;;;;4994089;28;20471;-80
2021/09/20 04:42:44;;;;;;;1.50;1.07;;;13.30;99.90;;;;;;4994099;28;20452;-80
2021/09/20 04:45:11;;;;;;;0.60;0.60;;;13.30;99.90;;;;;;4993845;28;20500;-80
2021/09/20 04:47:38;;;;;;;0.50;0.50;;;13.40;99.90;;;;;;4994114;28;20432;-80
2021/09/20 04:50:08;;;;;;;1.63;0.60;;;13.30;99.90;;;;;;4993954;28;20468;-79
2021/09/20 04:52:35;;;;;;;1.80;0.77;;;13.30;99.90;;;;;;4993714;28;20448;-80
2021/09/20 04:55:01;;;;;;;0.60;0.60;;;13.30;99.90;;;;;;4993976;28;20455;-79
2021/09/20 04:57:28;;;;;;;1.57;0.83;;;13.30;99.90;;;;;;4993941;28;20461;-80
2021/09/20 04:59:55;;;;;;;0.77;0.50;;;13.30;99.90;;;;;;4993912;28;20475;-80
2021/09/20 05:02:22;;;;;;;1.00;0.60;;;13.30;99.90;;;;;;4993911;28;20460;-79
2021/09/20 05:04:48;;;;;;;1.40;0.97;;;13.30;99.90;;;;;;4993802;28;20499;-80
2021/09/20 05:07:16;;;;;;;2.33;0.80;;;13.30;99.90;;;;;;4993680;28;20827;-80
2021/09/20 05:09:43;;;;;;;0.40;0.40;;;13.30;99.90;;;;;;4993538;28;20461;-80
2021/09/20 05:12:10;;;;;;;2.00;0.63;;;13.30;99.90;;;;;;4993849;28;20448;-80
2021/09/20 05:14:37;;;;;;;0.90;0.50;;;13.40;99.90;;;;;;4993809;28;20451;-80
2021/09/20 05:17:05;;;;;;;1.37;0.67;;;13.40;99.90;;;;;;4993715;28;20962;-80
2021/09/20 05:19:32;;;;;;;0.87;0.60;;;13.30;99.90;;;;;;4993665;28;20476;-80
2021/09/20 05:21:58;;;;;;;0.70;0.60;;;13.30;99.90;;;;;;4993954;28;20448;-80
2021/09/20 05:24:26;;;;;;;1.30;1.20;;;13.30;99.90;;;;;;4993623;28;20480;-79
2021/09/20 05:26:53;;;;;;;0.53;0.53;;;13.40;99.90;;;;;;4993688;28;20456;-80
2021/09/20 05:29:20;;;;;;;0.90;0.60;;;13.30;99.90;;;;;;4993631;28;20476;-80
2021/09/20 05:31:47;;;;;;;1.37;0.60;;;13.30;99.90;;;;;;4993637;28;20448;-80
2021/09/20 05:34:14;;;;;;;0.80;0.80;;;13.30;99.90;;;;;;4993678;28;20448;-79
2021/09/20 05:36:41;;;;;;;1.07;0.90;;;13.40;99.90;;;;;;4997323;28;20448;-79
2021/09/20 05:39:08;;;;;;;0.40;0.40;;;13.30;99.90;;;;;;4997326;28;20475;-80
2021/09/20 05:41:36;;;;;;;2.80;0.63;;;13.30;99.90;;;;;;4997344;28;20448;-80
2021/09/20 05:44:02;;;;;;;0.53;0.50;;;13.30;99.90;;;;;;4996763;28;20499;-80
2021/09/20 05:46:29;;;;;;;0.77;0.77;;;13.40;99.90;;;;;;4997043;28;20950;-82
2021/09/20 05:48:56;;;;;;;1.90;0.93;;;13.40;99.90;;;;;;4996874;28;20468;-82
2021/09/20 05:51:23;;;;;;;1.60;0.60;;;13.40;99.90;;;;;;4997161;28;20448;-83
2021/09/20 05:53:49;;;;;;;1.60;0.80;;;13.50;99.90;;;;;;4997108;28;20459;-83
2021/09/20 05:56:16;;;;;;;0.90;0.40;;;13.50;99.90;;;;;;4997110;28;20547;-83
2021/09/20 05:58:44;;;;;;;2.20;0.70;;;13.50;99.90;;;;;;4996713;28;20432;-83
2021/09/20 06:01:11;;;;;;;0.80;0.80;;;13.60;99.90;;;;;;4996993;28;20437;-83
2021/09/20 06:03:38;;;;;;;0.70;0.57;;;13.60;99.90;;;;;;4997199;28;20444;-82
2021/09/20 06:06:05;;;;;;;2.50;0.83;;;13.60;99.90;;;;;;4997048;28;20480;-83
2021/09/20 06:08:31;;;;;;;1.13;0.50;;;13.70;99.90;;;;;;4996819;28;20456;-83
2021/09/20 06:10:58;;;;;;;1.40;0.70;;;13.70;99.90;;;;;;4996747;28;20464;-83
2021/09/20 06:13:25;;;;;;;0.60;0.50;;;13.70;99.90;;;;;;4996827;28;20451;-83
2021/09/20 06:15:53;;;;;;;0.90;0.80;;;13.80;99.90;;;;;;4996468;28;20813;-83
2021/09/20 06:18:20;;;;;;;1.00;0.60;;;13.80;99.90;;;;;;4996423;28;20455;-83
2021/09/20 06:20:47;;;;;;;2.73;0.93;;;13.80;99.90;;;;;;4996576;28;20476;-83
2021/09/20 06:23:13;;;;;;;1.03;0.93;;;13.80;99.90;;;;;;4996581;28;20453;-83
2021/09/20 06:25:42;;;;;;;2.47;0.93;;;13.80;99.90;;;;;;4996457;28;20492;-83
2021/09/20 06:28:09;;;;;;;2.30;1.20;;;13.70;99.90;;;;;;4996513;28;20503;-83
2021/09/20 06:30:36;;;;;;;4.40;1.53;;;13.80;99.90;;;;;;4996147;28;20456;-82
2021/09/20 06:33:04;;;;;;;0.90;0.70;;;13.80;99.90;;;;;;4996422;28;20448;-83
2021/09/20 06:35:31;;;;;;;2.73;0.60;;;13.80;99.90;;;;;;4996352;28;20471;-83
2021/09/20 06:37:59;;;;;;;0.97;0.60;;;13.90;99.90;;;;;;4996356;28;20452;-83
2021/09/20 06:40:26;;;;;;;0.60;0.40;;;13.90;99.90;;;;;;4995926;28;21010;-83
2021/09/20 06:42:53;;;;;;;1.43;1.13;;;13.90;99.90;;;;;;4996263;28;20821;-83
2021/09/20 06:45:20;;;;;;;1.27;0.50;;;14.00;99.90;;;;;;4995387;28;20499;-83
2021/09/20 06:47:47;;;;;;;0.97;0.50;;;14.00;99.90;;;;;;4996415;28;20463;-83
2021/09/20 06:50:15;;;;;;;2.10;1.00;;;14.00;99.90;;;;;;4996072;28;20471;-83
2021/09/20 06:52:42;;;;;;;1.73;1.17;;;14.00;99.90;;;;;;4995919;28;20797;-85
2021/09/20 06:55:11;;;;;;;1.13;0.83;;;14.00;99.90;;;;;;4996586;28;20460;-85
2021/09/20 06:57:37;;;;;;;1.83;0.97;;;14.00;99.90;;;;;;4995851;28;20437;-85
2021/09/20 07:00:07;;;;;;;0.50;0.40;;;14.10;99.90;;;;;;4996050;28;20481;-85
2021/09/20 07:02:34;;;;;;;0.60;0.60;;;14.10;99.90;;;;;;4996022;28;20448;-86
2021/09/20 07:05:01;;;;;;;0.83;0.80;;;14.20;99.90;;;;;;4996070;28;20464;-85
2021/09/20 07:07:29;;;;;;;2.30;1.10;;;14.20;99.90;;;;;;4995819;28;20920;-86
2021/09/20 07:09:56;;;;;;;1.87;0.53;;;14.20;99.90;;;;;;4995812;28;20483;-86
2021/09/20 07:12:23;;;;;;;1.20;1.03;;;14.20;99.90;;;;;;4995718;28;20409;-86
2021/09/20 07:14:49;;;;;;;0.97;0.40;;;14.40;99.90;;;;;;4995668;28;20421;-86
2021/09/20 07:17:16;;;;;;;0.50;0.50;;;14.50;99.90;;;;;;4996153;28;20433;-85
2021/09/20 07:19:43;;;;;;;1.27;1.10;;;14.50;99.90;;;;;;4995646;28;20479;-85
2021/09/20 07:22:10;;;;;;;2.10;1.47;;;14.40;99.90;;;;;;4995388;28;20459;-85
2021/09/20 07:24:38;;;;;;;0.50;0.50;;;14.40;99.90;;;;;;4995760;28;20488;-85
2021/09/20 07:27:04;;;;;;;1.43;0.90;;;14.40;99.90;;;;;;4995640;28;20440;-82
2021/09/20 07:29:31;;;;;;;1.50;1.20;;;14.40;99.90;;;;;;4995007;28;20548;-81
2021/09/20 07:31:58;;;;;;;1.50;1.40;;;14.50;99.90;;;;;;4995283;28;20463;-81
2021/09/20 07:34:25;;;;;;;1.17;0.93;;;14.60;99.90;;;;;;4995255;28;20448;-81
2021/09/20 07:36:51;;;;;;;1.63;0.60;;;14.70;99.90;;;;;;4995116;28;20801;-81
2021/09/20 07:39:18;;;;;;;4.23;1.17;;;14.80;99.90;;;;;;4994808;28;20975;-80
2021/09/20 07:41:46;;;;;;;1.77;0.90;;;14.80;99.90;;;;;;4994863;28;20459;-81
2021/09/20 07:44:13;;;;;;;2.10;1.33;;;14.90;99.90;;;;;;4994730;28;20477;-81
2021/09/20 07:46:40;;;;;;;3.27;1.77;;;14.80;99.90;;;;;;4994928;28;20503;-81
2021/09/20 07:49:07;;;;;;;1.33;0.63;;;14.80;99.90;;;;;;4994395;28;20477;-82
2021/09/20 07:51:34;;;;;;;1.17;0.87;;;14.80;99.90;;;;;;4994692;28;20445;-81
2021/09/20 07:54:01;;;;;;;2.70;0.77;;;14.90;99.90;;;;;;4994753;28;20455;-83
2021/09/20 07:56:31;;;;;;;1.90;0.80;;;14.90;99.90;;;;;;4994848;28;20524;-83
2021/09/20 07:58:59;;;;;;;2.23;1.00;;;15.00;99.90;;;;;;4994022;28;20468;-83
2021/09/20 08:01:27;;;;;;;3.50;0.90;;;15.00;99.90;;;;;;4995035;28;20452;-80
2021/09/20 08:03:53;;;;;;;2.73;0.60;;;15.00;99.90;;;;;;4994778;28;20456;-80
2021/09/20 08:06:20;;;;;;;3.07;1.33;;;15.00;99.90;;;;;;4994674;28;20511;-80
2021/09/20 08:08:47;;;;;;;1.97;1.10;;;15.00;99.90;;;;;;4994599;28;20816;-80
2021/09/20 08:11:14;;;;;;;2.20;1.00;;;15.10;99.90;;;;;;4994301;28;20455;-80
2021/09/20 08:13:41;;;;;;;1.27;0.80;;;15.20;99.90;;;;;;4994836;28;20448;-80
2021/09/20 08:16:09;;;;;;;0.90;0.77;;;15.20;99.90;;;;;;4994397;28;20539;-80
2021/09/20 08:18:36;;;;;;;2.03;1.30;;;15.30;99.90;;;;;;4994118;28;20449;-79
2021/09/20 08:21:03;;;;;;;2.67;1.60;;;15.30;99.90;;;;;;4994330;28;20456;-79
2021/09/20 08:23:30;;;;;;;2.93;1.50;;;15.40;99.90;;;;;;4994428;28;20444;-80
2021/09/20 08:25:57;;;;;;;1.53;0.90;;;15.40;99.90;;;;;;4993894;28;20535;-79
2021/09/20 08:28:24;;;;;;;2.83;1.47;;;15.40;99.90;;;;;;4995199;28;20440;-80
2021/09/20 08:30:51;;;;;;;2.20;1.17;;;15.50;99.90;;;;;;4995275;28;20464;-87
2021/09/20 08:33:19;;;;;;;1.67;1.13;;;15.50;99.90;;;;;;5006937;28;20516;-87
2021/09/20 08:35:46;;;;;;;3.27;1.10;;;15.60;99.90;;;;;;4994630;28;20455;-83
2021/09/20 08:38:13;;;;;;;3.50;2.33;;;15.70;99.90;;;;;;4994996;28;20463;-83
2021/09/20 08:40:40;;;;;;;1.00;0.70;;;15.70;99.90;;;;;;4993981;28;20481;-83
2021/09/20 08:43:07;;;;;;;2.00;1.53;;;15.70;99.90;;;;;;4994223;28;20449;-83
2021/09/20 08:45:34;;;;;;;1.57;0.97;;;15.70;99.90;;;;;;4994059;28;20492;-85
2021/09/20 08:48:01;;;;;;;2.27;1.63;;;15.70;99.90;;;;;;4993822;28;20459;-84
2021/09/20 08:50:33;;;;;;;1.20;1.00;;;15.80;99.90;;;;;;4994015;28;20468;-85
2021/09/20 08:53:01;;;;;;;1.43;1.00;;;15.80;99.90;;;;;;4994470;28;20505;-84
2021/09/20 08:55:28;;;;;;;2.00;1.70;;;15.80;99.90;;;;;;4994117;28;20452;-85
2021/09/20 08:57:55;;;;;;;1.83;1.73;;;15.80;99.90;;;;;;4994317;28;20455;-85
2021/09/20 09:00:22;;;;;;;3.73;1.17;;;15.80;99.90;;;;;;4993967;28;20500;-85
2021/09/20 09:02:48;;;;;;;6.63;1.47;;;15.90;99.90;;;;;;4993866;28;20931;-85
2021/09/20 09:05:21;;;;;;;2.70;1.17;;;15.80;99.90;;;;;;4993999;28;20484;-85
2021/09/20 09:07:51;;;;;;;2.03;0.83;;;15.80;99.90;;;;;;4993640;28;20913;-85
2021/09/20 09:10:18;;;;;;;2.20;1.03;;;15.70;99.90;;;;;;4997244;28;20460;-85
2021/09/20 09:12:45;;;;;;;1.10;0.90;;;15.60;99.90;;;;;;4998106;28;20455;-85
2021/09/20 09:15:14;;;;;;;2.20;0.87;;;15.60;99.90;;;;;;4998253;28;20444;-85
2021/09/20 09:17:42;;;;;;;2.77;1.20;;;15.50;99.90;;;;;;4997917;28;20452;-84
2021/09/20 09:20:11;;;;;;;2.43;1.20;;;15.50;99.90;;;;;;4997671;28;20478;-85
2021/09/20 09:22:42;;;;;;;1.17;0.77;;;15.40;99.90;;;;;;4997495;28;20968;-85
2021/09/20 09:25:12;;;;;;;2.33;0.80;;;15.40;99.90;;;;;;4997966;28;20468;-83
2021/09/20 09:27:40;;;;;;;1.63;1.30;;;15.40;99.90;;;;;;4997690;28;20441;-83
2021/09/20 09:30:17;;;;;;;4.70;1.27;;;15.30;99.90;;;;;;4997598;28;20839;-83
2021/09/20 09:32:45;;;;;;;1.37;1.23;;;15.40;99.90;;;;;;4997512;28;20931;-83
2021/09/20 09:35:14;;;;;;;3.80;1.30;;;15.40;99.90;;;;;;4997241;28;20444;-83
2021/09/20 09:37:42;;;;;;;2.03;0.90;;;15.30;99.90;;;;;;4997477;28;20448;-83
2021/09/20 09:40:14;;;;;;;2.57;1.43;;;15.30;99.90;;;;;;4997387;28;20468;-83
2021/09/20 09:42:42;;;;;;;1.73;1.57;;;15.20;99.90;;;;;;4997356;28;20427;-83
2021/09/20 09:45:18;;;;;;;1.47;1.37;;;15.20;99.90;;;;;;4996967;28;20488;-83
2021/09/20 09:47:45;;;;;;;2.30;2.00;;;15.20;99.90;;;;;;4997227;28;20443;-83
2021/09/20 09:50:14;;;;;;;2.43;1.20;;;15.10;99.90;;;;;;4997212;28;20480;-83
2021/09/20 09:52:42;;;;;;;0.77;0.70;;;15.10;99.90;;;;;;4997598;28;20460;-78
2021/09/20 09:55:10;;;;;;;2.17;1.30;;;15.00;99.90;;;;;;4996879;28;20947;-77
2021/09/20 09:57:38;;;;;;;2.57;0.80;;;14.90;99.90;;;;;;4997110;28;20444;-78
2021/09/20 10:00:07;;;;;;;2.30;0.93;;;14.80;99.90;;;;;;4996671;28;20468;-80
2021/09/20 10:02:36;;;;;;;1.73;0.80;;;14.70;99.90;;;;;;4996756;28;20437;-82
2021/09/20 10:05:06;;;;;;;2.50;1.40;;;14.50;99.90;;;;;;4996758;28;20802;-81
2021/09/20 10:07:35;;;;;;;1.83;0.87;;;14.40;99.90;;;;;;4996943;28;20448;-81
2021/09/20 10:10:05;;;;;;;2.20;1.33;;;14.30;99.90;;;;;;4996820;28;20476;-82
2021/09/20 10:12:34;;;;;;;2.93;1.57;;;14.10;99.90;;;;;;4996583;28;20984;-82
2021/09/20 10:15:02;;;;;;;4.77;1.20;;;14.00;99.90;;;;;;4996886;28;20485;-82
2021/09/20 10:17:30;;;;;;;1.93;0.90;;;14.00;99.90;;;;;;4997031;28;20433;-82
2021/09/20 10:19:58;;;;;;;1.93;1.53;;;14.00;99.90;;;;;;4996301;28;20491;-82
2021/09/20 10:22:26;;;;;;;1.50;1.10;;;13.90;99.90;;;;;;4996478;28;20429;-82
2021/09/20 10:24:54;;;;;;;2.43;1.37;;;13.90;99.90;;;;;;4996408;28;20424;-81
2021/09/20 10:27:23;;;;;;;1.30;1.00;;;13.90;99.90;;;;;;4996240;28;20833;-81
2021/09/20 10:29:55;;;;;;;3.23;0.83;;;13.90;99.90;;;;;;4996547;28;20834;-81
2021/09/20 10:32:22;;;;;;;0.80;0.63;;;13.90;99.90;;;;;;4996535;28;20433;-81
2021/09/20 10:34:49;;;;;;;0.50;0.50;;;13.90;99.90;;;;;;4996397;28;20904;-81
2021/09/20 10:37:18;;;;;;;1.30;0.90;;;13.90;99.90;;;;;;4996759;28;20422;-81
2021/09/20 10:40:01;;;;;;;1.63;1.00;;;14.00;99.90;;;;;;4996271;28;20472;-81
2021/09/20 10:42:56;;;;;;;4.87;1.40;;;13.90;99.90;;;;;;4996369;28;20819;-81
2021/09/20 10:45:49;;;;;;;2.60;1.30;;;13.90;99.90;;;;;;4995631;28;20492;-84
2021/09/20 10:48:47;;;;;;;2.23;1.07;;;14.00;99.90;;;;;;4995198;28;20460;-86
2021/09/20 10:51:26;;;;;;;3.90;1.80;;;14.10;99.90;;;;;;4996920;28;20520;-84
2021/09/20 10:54:16;;;;;;;1.53;1.43;;;14.10;99.90;;;;;;4996365;28;20441;-83
2021/09/20 10:56:44;;;;;;;1.73;1.17;;;14.20;99.90;;;;;;4996087;28;20432;-84
2021/09/20 10:59:17;;;;;;;6.73;1.60;;;14.20;99.90;;;;;;4995975;28;20479;-84
2021/09/20 11:01:55;;;;;;;3.67;1.60;;;14.30;99.90;;;;;;4995957;28;20441;-83
2021/09/20 11:04:27;;;;;;;1.00;0.80;;;14.30;99.90;;;;;;4995920;28;20491;-84
2021/09/20 11:07:24;;;;;;;3.57;1.50;;;14.40;99.90;;;;;;4995767;28;20476;-84
2021/09/20 11:10:09;;;;;;;1.30;1.13;;;14.50;99.90;;;;;;4897990;29;20476;-83
2021/09/20 11:12:54;;;;;;;2.80;1.07;;;14.60;99.90;;;;;;4985119;28;20472;-84
2021/09/20 11:15:22;;;;;;;1.77;0.90;;;14.60;99.90;;;;;;4995749;28;20478;-83
2021/09/20 11:17:51;;;;;;;3.13;1.20;;;14.70;99.90;;;;;;4995378;28;20440;-83
2021/09/20 11:20:38;;;;;;;1.20;0.97;;;14.80;99.90;;;;;;4995565;28;20567;-83
2021/09/20 11:23:35;;;;;;;1.27;0.83;;;14.80;99.90;;;;;;4995532;28;20459;-83
2021/09/20 11:26:08;;;;;;;0.70;0.70;;;15.00;99.90;;;;;;4995623;28;20468;-83
2021/09/20 11:28:36;;;;;;;1.07;0.67;;;15.20;99.90;;;;;;4995446;28;20795;-82
2021/09/20 11:31:03;;;;;;;0.80;0.80;;;15.30;99.90;;;;;;4995369;28;20456;-83
2021/09/20 11:33:36;;;;;;;2.07;1.10;;;15.40;99.90;;;;;;4995538;28;20460;-84
2021/09/20 11:36:21;;;;;;;1.73;1.13;;;15.40;99.90;;;;;;4995660;28;20803;-87
2021/09/20 11:38:48;;;;;;;0.97;0.73;;;15.40;99.90;;;;;;4996470;28;20439;-87
2021/09/20 11:41:23;;;;;;;1.70;1.13;;;15.50;99.90;;;;;;4995520;28;20793;-85
2021/09/20 11:43:50;;;;;;;1.80;1.03;;;15.60;99.90;;;;;;4995451;28;20837;-83
2021/09/20 11:46:22;;;;;;;1.23;0.90;;;15.70;99.90;;;;;;4995275;28;20488;-82
2021/09/20 11:49:04;;;;;;;0.87;0.70;;;15.80;99.90;;;;;;4994789;28;20429;-82
2021/09/20 11:51:32;;;;;;;1.60;1.50;;;15.90;99.90;;;;;;4995064;28;20443;-82
2021/09/20 11:53:59;;;;;;;3.07;0.90;;;15.80;99.90;;;;;;4994920;28;20460;-83
2021/09/20 11:56:28;;;;;;;3.00;1.10;;;15.80;99.90;;;;;;4994826;28;20432;-82
2021/09/20 11:58:56;;;;;;;2.50;1.70;;;15.90;99.90;;;;;;4995051;28;20425;-83
2021/09/20 12:01:25;;;;;;;3.63;1.10;;;16.00;99.90;;;;;;4994908;28;20445;-82
2021/09/20 12:03:54;;;;;;;1.53;0.70;;;16.00;99.90;;;;;;4994795;28;20475;-82
2021/09/20 12:06:29;;;;;;;1.57;1.00;;;16.10;99.90;;;;;;4994595;28;21034;-83
2021/09/20 12:08:59;;;;;;;2.63;1.37;;;16.10;99.90;;;;;;4994641;28;20472;-83
2021/09/20 12:11:27;;;;;;;7.83;2.17;;;16.20;99.90;;;;;;4994868;28;20447;-82
2021/09/20 12:13:54;;;;;;;3.47;1.93;;;16.10;99.90;;;;;;4994332;28;20433;-82
2021/09/20 12:16:21;;;;;;;1.67;1.00;;;16.00;99.90;;;;;;4994581;28;20459;-83
2021/09/20 12:18:48;;;;;;;4.43;1.30;;;15.90;99.90;;;;;;4994433;28;20449;-82
2021/09/20 12:21:18;;;;;;;1.73;0.97;;;16.00;99.90;;;;;;4994163;28;20939;-82
2021/09/20 12:23:48;;;;;;;1.73;1.60;;;16.00;99.90;;;;;;4994538;28;20766;-82
2021/09/20 12:26:17;;;;;;;3.67;1.20;;;16.10;99.90;;;;;;4994359;28;20472;-82
2021/09/20 12:28:50;;;;;;;1.43;0.80;;;16.00;99.90;;;;;;4994271;28;20471;-82
2021/09/20 12:31:20;;;;;;;0.97;0.80;;;16.00;99.90;;;;;;4994095;28;20440;-82
2021/09/20 12:33:55;;;;;;;2.97;2.07;;;16.00;99.90;;;;;;4994159;28;20452;-83
2021/09/20 12:36:27;;;;;;;1.70;1.30;;;16.00;99.90;;;;;;4994200;28;20978;-83
2021/09/20 12:39:06;;;;;;;2.80;1.00;;;16.00;99.90;;;;;;4994476;28;20437;-82
2021/09/20 12:41:35;;;;;;;2.13;0.97;;;15.90;99.90;;;;;;4994219;28;20554;-82
2021/09/20 12:44:03;;;;;;;2.30;1.13;;;15.80;99.90;;;;;;4993320;28;20996;-83
2021/09/20 12:46:32;;;;;;;3.63;1.87;;;15.80;99.90;;;;;;4993940;28;20476;-83
2021/09/20 12:49:00;;;;;;;2.10;0.73;;;15.80;99.90;;;;;;4993960;28;20469;-83
2021/09/20 12:51:35;;;;;;;0.80;0.70;;;15.70;99.90;;;;;;4994278;28;20452;-83
2021/09/20 12:54:15;;;;;;;8.37;1.47;;;15.80;99.90;;;;;;4994100;28;20436;-83